Decoded Metar for OIMM (MASHHAD (AFB/CIV in IRAN) (IATA:N/A) | Meteo·Mobile Aviation Weather
aviador You're here:

OIMM Decoded Metar

MASHHAD (AFB/CIV in IRAN
Report Time2018-09-22 02:30:00
UTC Time2018-09-22 02:57:09
Flight Rules vfr VFR
WindCalm
Visibility9999 m
Phenomena:N/A
Clouds:N/A
Expected CloudBase > 3,600 ft AGL from Temp-Dew spread
CeilingNone
Temp14°C (ISA +5)
Dew Point05°C (55% RH)
AAT12.9°C
QNH1022 hPa
Density Alt3,671 ft
Elevation3,215 ft
Report Wrong Elevation
Raw Report
METAR OIMM 220230Z 00000KT CAVOK 14/05 Q1022 A3018=

Extra information for OIMM:More info

Metar Taf Metar & Taf Last 4 Metars F.Rules Stats Wind Profile Meteogram Temp Stats Airport Information Weather charts Add Link Nearby VenuesMetar ALERT Operation Metar Decoded Social comments